createdAt,value
2023-08-14T00:04:41.910Z,83.97
2023-08-14T00:11:07.418Z,84.29
2023-08-14T00:16:56.676Z,84.17
2023-08-14T00:23:12.811Z,84.65
2023-08-14T00:29:40.262Z,86.10
2023-08-14T00:36:07.275Z,84.58
2023-08-14T00:42:33.703Z,83.84
2023-08-14T00:55:30.405Z,84.20
2023-08-14T01:00:56.519Z,84.33
2023-08-14T01:06:24.655Z,84.91
2023-08-14T01:12:37.937Z,85.19
2023-08-14T01:17:52.850Z,85.23
2023-08-14T01:24:14.318Z,85.19
2023-08-14T01:29:52.907Z,84.45
2023-08-14T01:35:01.230Z,84.93
2023-08-14T01:40:17.737Z,85.21
2023-08-14T01:46:02.488Z,85.05
2023-08-14T01:51:43.298Z,84.87
2023-08-14T01:56:50.495Z,86.47
2023-08-14T02:02:03.143Z,85.93
2023-08-14T02:07:08.598Z,85.11
2023-08-14T02:12:37.042Z,85.26
2023-08-14T02:18:17.485Z,85.35
2023-08-14T02:23:25.714Z,85.79
2023-08-14T02:28:48.275Z,86.53
2023-08-14T02:35:00.350Z,86.67
2023-08-14T02:40:46.305Z,86.28
2023-08-14T02:45:51.022Z,86.76
2023-08-14T02:51:30.072Z,87.33
2023-08-14T02:56:42.445Z,87.27
2023-08-14T03:02:18.318Z,87.74
2023-08-14T03:07:46.551Z,87.89
2023-08-14T03:13:31.106Z,87.56
2023-08-14T03:18:51.506Z,88.70
2023-08-14T03:24:45.946Z,89.43
2023-08-14T03:31:05.124Z,88.91
2023-08-14T03:37:34.130Z,88.46
2023-08-14T03:44:00.051Z,87.71
2023-08-14T03:50:28.389Z,88.63
2023-08-14T05:45:32.508Z,79.05
2023-08-14T05:51:30.858Z,78.94
2023-08-14T05:57:45.601Z,78.80
2023-08-14T06:04:11.296Z,78.73
2023-08-14T06:15:59.750Z,77.45
2023-08-14T06:21:05.060Z,77.90
2023-08-14T06:26:10.822Z,78.30
2023-08-14T06:31:19.711Z,78.66
2023-08-14T06:36:24.426Z,78.60
2023-08-14T06:41:56.289Z,78.19
2023-08-14T06:48:04.393Z,77.40
2023-08-14T06:53:58.331Z,76.84
2023-08-14T06:59:46.712Z,74.90
2023-08-14T07:06:05.793Z,74.99
2023-08-14T07:12:09.638Z,73.65
2023-08-14T07:18:34.416Z,73.92
2023-08-14T07:24:50.099Z,73.26
2023-08-14T07:30:20.176Z,70.59
2023-08-14T07:36:20.797Z,70.13
2023-08-14T07:41:32.277Z,69.81
2023-08-14T07:47:42.947Z,67.31
2023-08-14T07:53:19.912Z,66.71
2023-08-14T07:59:22.497Z,64.35
2023-08-14T08:05:20.887Z,65.13
2023-08-14T08:10:55.502Z,63.86
2023-08-14T08:16:39.808Z,62.92
2023-08-14T08:22:19.183Z,63.90
2023-08-14T08:28:33.629Z,63.75
2023-08-14T08:34:30.763Z,63.95
2023-08-14T08:40:35.649Z,62.98
2023-08-14T08:47:00.790Z,60.99
2023-08-14T08:53:25.731Z,61.21
2023-08-14T08:59:39.297Z,60.60
2023-08-14T09:05:58.121Z,60.81
2023-08-14T09:11:54.250Z,58.89
2023-08-14T09:17:52.011Z,58.53
2023-08-14T09:23:22.074Z,56.88
2023-08-14T09:29:14.702Z,57.28
2023-08-14T09:35:10.695Z,57.60
2023-08-14T09:41:39.078Z,57.37
2023-08-14T09:48:04.254Z,58.49
2023-08-14T10:00:45.265Z,57.62
2023-08-14T10:07:10.651Z,56.05
2023-08-14T10:13:18.907Z,56.69
2023-08-14T10:19:04.173Z,56.18
2023-08-14T10:25:18.298Z,56.35
2023-08-14T10:31:34.061Z,55.87
2023-08-14T10:37:39.481Z,56.27
2023-08-14T10:43:45.385Z,55.39
2023-08-14T10:49:49.839Z,55.48
2023-08-14T10:55:20.788Z,54.98
2023-08-14T11:00:47.357Z,55.40
2023-08-14T11:06:01.801Z,55.37
2023-08-14T11:11:32.799Z,54.02
2023-08-14T11:16:54.045Z,53.84
2023-08-14T11:22:17.731Z,54.38
2023-08-14T11:27:25.052Z,55.12
2023-08-14T11:32:33.443Z,52.81
2023-08-14T11:38:16.538Z,52.55
2023-08-14T11:44:20.520Z,52.89
2023-08-14T11:50:02.676Z,52.76
2023-08-14T11:55:25.292Z,51.92
2023-08-14T12:01:39.004Z,50.13
2023-08-14T12:07:46.444Z,49.70
2023-08-14T12:13:43.793Z,49.81
2023-08-14T12:19:22.350Z,49.59
2023-08-14T12:25:28.396Z,48.38
2023-08-14T12:31:15.726Z,49.00
2023-08-14T12:36:23.541Z,49.72
2023-08-14T12:42:04.324Z,49.13
2023-08-14T12:47:56.852Z,50.03
2023-08-14T12:53:45.110Z,50.54
2023-08-14T12:59:42.728Z,50.78
2023-08-14T13:06:00.969Z,50.43
2023-08-14T13:11:23.284Z,50.70
2023-08-14T13:17:05.830Z,50.45
2023-08-14T13:22:24.856Z,49.80
2023-08-14T13:33:51.231Z,49.99
2023-08-14T13:39:03.271Z,49.68
2023-08-14T13:44:48.841Z,49.97
2023-08-14T13:50:22.986Z,48.19
2023-08-14T13:55:45.222Z,48.81
2023-08-14T14:01:28.772Z,49.58
2023-08-14T14:06:48.942Z,48.69
2023-08-14T14:12:44.454Z,47.89
2023-08-14T14:17:59.009Z,48.23
2023-08-14T14:23:31.661Z,47.91
2023-08-14T14:29:40.929Z,47.12
2023-08-14T14:35:15.524Z,47.33
2023-08-14T14:40:24.899Z,46.96
2023-08-14T14:45:54.043Z,47.35
2023-08-14T14:51:58.846Z,47.56
2023-08-14T14:57:24.295Z,48.69
2023-08-14T15:02:37.551Z,47.64
2023-08-14T15:07:50.703Z,47.38
2023-08-14T15:13:10.561Z,47.47
2023-08-14T15:18:56.309Z,47.28
2023-08-14T15:25:04.135Z,46.99
2023-08-14T15:30:50.455Z,47.24
2023-08-14T15:36:26.356Z,47.75
2023-08-14T15:41:34.048Z,47.96
2023-08-14T15:46:45.654Z,48.78
2023-08-14T15:52:16.409Z,49.60
2023-08-14T15:57:24.221Z,49.94
2023-08-14T16:02:28.791Z,49.80
2023-08-14T16:07:43.235Z,49.57
2023-08-14T16:12:49.361Z,49.54
2023-08-14T16:17:54.213Z,50.26
2023-08-14T16:22:59.600Z,50.48
2023-08-14T16:28:05.150Z,50.98
2023-08-14T16:33:10.622Z,52.31
2023-08-14T16:38:23.299Z,52.31
2023-08-14T16:43:37.945Z,52.54
2023-08-14T16:48:42.447Z,53.27
2023-08-14T16:53:46.802Z,53.89
2023-08-14T16:58:57.067Z,53.75
2023-08-14T17:04:42.196Z,51.39
2023-08-14T17:09:59.475Z,49.43
2023-08-14T17:15:24.509Z,48.65
2023-08-14T17:20:32.301Z,48.38
2023-08-14T17:25:44.800Z,48.90
2023-08-14T17:31:52.748Z,49.50
2023-08-14T17:37:41.586Z,49.68
2023-08-14T17:43:36.265Z,50.66
2023-08-14T17:49:18.161Z,52.05
2023-08-14T17:55:37.119Z,52.42
2023-08-14T18:02:03.116Z,54.10
2023-08-14T18:08:09.641Z,54.61
2023-08-14T18:13:48.877Z,56.03
2023-08-14T18:18:58.223Z,56.65
2023-08-14T18:25:33.249Z,57.49
2023-08-14T18:31:49.960Z,58.93
2023-08-14T18:37:49.694Z,60.45
2023-08-14T18:43:46.530Z,61.99
2023-08-14T18:49:46.155Z,61.76
2023-08-14T18:55:51.116Z,63.22
2023-08-14T19:02:12.935Z,63.73
2023-08-14T19:07:39.440Z,62.67
2023-08-14T19:13:46.876Z,62.37
2023-08-14T19:19:37.252Z,62.42
2023-08-14T19:26:26.153Z,62.64
2023-08-14T19:32:56.386Z,62.84
2023-08-14T19:39:21.851Z,62.98
2023-08-14T19:45:42.150Z,62.37
2023-08-14T19:58:21.255Z,64.30
2023-08-14T20:04:25.549Z,65.08
2023-08-14T20:10:26.846Z,65.75
2023-08-14T20:16:48.896Z,66.79
2023-08-14T20:23:04.013Z,69.06
2023-08-14T20:29:20.868Z,69.78
2023-08-14T20:34:30.277Z,70.37
2023-08-14T20:40:12.793Z,71.82
2023-08-14T20:46:25.101Z,71.71
2023-08-14T20:52:26.763Z,72.28
2023-08-14T20:58:55.467Z,72.93
2023-08-14T21:04:30.715Z,74.27
2023-08-14T21:10:20.577Z,74.59
2023-08-14T21:16:28.980Z,73.57
2023-08-14T21:21:51.226Z,73.83
2023-08-14T21:27:16.970Z,74.10
2023-08-14T21:32:25.181Z,74.13
2023-08-14T21:37:50.139Z,75.04
2023-08-14T21:42:58.672Z,75.67
2023-08-14T21:48:21.340Z,75.50
2023-08-14T21:53:44.195Z,76.36
2023-08-14T21:59:28.677Z,76.19
2023-08-14T22:04:42.863Z,76.25
2023-08-14T22:10:45.518Z,76.52
2023-08-14T22:17:11.552Z,76.91
2023-08-14T22:22:57.035Z,76.00
2023-08-14T22:29:01.524Z,77.03
2023-08-14T22:35:18.843Z,77.96
2023-08-14T22:41:03.937Z,78.51
2023-08-14T22:46:42.126Z,79.12
2023-08-14T22:52:31.105Z,78.88
2023-08-14T22:58:35.832Z,80.52
2023-08-14T23:05:01.231Z,79.11
2023-08-14T23:11:28.694Z,79.00
2023-08-14T23:17:07.331Z,78.93
2023-08-14T23:23:33.968Z,78.95
2023-08-14T23:42:24.603Z,80.37
2023-08-14T23:47:52.808Z,81.78
2023-08-14T23:53:57.950Z,80.28
2023-08-14T23:59:25.819Z,79.52
